createdAt,value
2022-10-23T00:02:32.625Z,10.40
2022-10-23T00:05:34.370Z,10.30
2022-10-23T00:08:36.164Z,10.30
2022-10-23T00:11:38.013Z,10.30
2022-10-23T00:14:39.663Z,10.30
2022-10-23T00:17:41.729Z,10.20
2022-10-23T00:20:43.580Z,10.20
2022-10-23T00:23:46.016Z,10.10
2022-10-23T00:26:50.507Z,10.10
2022-10-23T00:29:52.223Z,10.20
2022-10-23T00:32:53.922Z,10.20
2022-10-23T00:35:55.604Z,10.10
2022-10-23T00:38:57.276Z,10.00
2022-10-23T00:41:58.965Z,10.00
2022-10-23T00:45:15.445Z,10.00
2022-10-23T00:48:18.155Z,10.10
2022-10-23T00:51:20.225Z,9.90
2022-10-23T00:54:25.535Z,9.80
2022-10-23T01:00:55.779Z,9.80
2022-10-23T01:03:58.161Z,9.70
2022-10-23T01:07:08.869Z,9.70
2022-10-23T01:10:19.251Z,9.80
2022-10-23T01:13:37.669Z,9.70
2022-10-23T01:16:43.165Z,9.70
2022-10-23T01:20:22.515Z,9.70
2022-10-23T01:23:51.501Z,9.60
2022-10-23T01:26:59.083Z,9.60
2022-10-23T01:30:06.347Z,9.60
2022-10-23T01:33:22.642Z,9.70
2022-10-23T01:36:29.128Z,9.60
2022-10-23T01:39:39.760Z,9.50
2022-10-23T01:42:47.836Z,9.50
2022-10-23T01:45:54.993Z,9.50
2022-10-23T01:48:59.975Z,9.40
2022-10-23T01:52:06.207Z,9.40
2022-10-23T01:55:11.928Z,9.40
2022-10-23T01:58:16.369Z,9.50
2022-10-23T02:01:21.399Z,9.40
2022-10-23T02:04:36.272Z,9.40
2022-10-23T02:07:38.515Z,9.40
2022-10-23T02:10:49.167Z,9.40
2022-10-23T02:14:10.138Z,9.40
2022-10-23T02:17:29.841Z,9.40
2022-10-23T02:20:45.569Z,9.40
2022-10-23T02:23:52.477Z,9.50
2022-10-23T02:27:02.528Z,9.60
2022-10-23T02:30:10.428Z,9.70
2022-10-23T02:33:14.007Z,9.70
2022-10-23T02:36:18.018Z,9.80
2022-10-23T02:39:24.233Z,9.80
2022-10-23T02:42:35.376Z,9.80
2022-10-23T02:45:51.729Z,9.80
2022-10-23T02:49:19.912Z,9.80
2022-10-23T02:52:29.401Z,9.80
2022-10-23T02:56:08.113Z,9.80
2022-10-23T02:59:31.028Z,9.80
2022-10-23T03:02:50.031Z,9.80
2022-10-23T03:05:52.999Z,9.80
2022-10-23T03:09:00.031Z,9.80
2022-10-23T03:12:01.934Z,9.80
2022-10-23T03:15:08.773Z,9.80
2022-10-23T03:18:10.412Z,9.80
2022-10-23T03:21:12.450Z,9.70
2022-10-23T03:24:14.098Z,9.70
2022-10-23T03:27:18.319Z,9.70
2022-10-23T03:30:20.140Z,9.70
2022-10-23T03:33:25.899Z,9.80
2022-10-23T03:36:27.543Z,9.80
2022-10-23T03:39:29.440Z,9.70
2022-10-23T03:42:31.948Z,9.70
2022-10-23T03:45:33.677Z,9.80
2022-10-23T03:48:38.148Z,9.70
2022-10-23T03:51:41.682Z,9.80
2022-10-23T03:54:43.365Z,9.80
2022-10-23T03:57:45.693Z,9.60
2022-10-23T04:00:47.431Z,9.60
2022-10-23T04:03:49.227Z,9.50
2022-10-23T04:06:51.335Z,9.50
2022-10-23T04:09:54.291Z,9.50
2022-10-23T04:12:56.027Z,9.60
2022-10-23T04:15:57.709Z,9.60
2022-10-23T04:18:59.418Z,9.60
2022-10-23T04:22:01.143Z,9.60
2022-10-23T04:25:02.981Z,9.80
2022-10-23T04:28:06.464Z,9.80
2022-10-23T04:31:12.774Z,9.90
2022-10-23T04:34:16.568Z,9.80
2022-10-23T04:37:18.346Z,9.80
2022-10-23T04:40:20.003Z,9.80
2022-10-23T04:43:22.113Z,9.90
2022-10-23T04:46:23.842Z,9.80
2022-10-23T04:49:25.577Z,9.80
2022-10-23T04:52:47.519Z,9.80
2022-10-23T04:56:15.065Z,9.80
2022-10-23T04:59:33.896Z,9.80
2022-10-23T05:02:36.019Z,9.70
2022-10-23T05:05:37.699Z,9.70
2022-10-23T05:08:59.055Z,9.70
2022-10-23T05:12:28.252Z,9.70
2022-10-23T05:15:30.239Z,9.80
2022-10-23T05:18:49.996Z,9.70
2022-10-23T05:21:55.726Z,9.80
2022-10-23T05:25:02.111Z,9.80
2022-10-23T05:28:06.367Z,9.80
2022-10-23T05:31:08.227Z,9.80
2022-10-23T05:34:16.402Z,9.80
2022-10-23T05:37:19.764Z,9.80
2022-10-23T05:40:21.887Z,9.70
2022-10-23T05:43:30.979Z,9.70
2022-10-23T05:46:43.572Z,9.80
2022-10-23T05:49:47.849Z,9.80
2022-10-23T05:52:49.605Z,9.80
2022-10-23T05:56:11.532Z,9.80
2022-10-23T05:59:22.872Z,9.80
2022-10-23T06:02:43.811Z,9.80
2022-10-23T06:05:58.522Z,9.80
2022-10-23T06:09:10.199Z,9.80
2022-10-23T06:12:14.565Z,9.70
2022-10-23T06:15:19.919Z,9.70
2022-10-23T06:18:32.789Z,9.80
2022-10-23T06:21:40.677Z,9.70
2022-10-23T06:24:44.885Z,9.80
2022-10-23T06:27:48.553Z,9.90
2022-10-23T06:30:50.317Z,9.90
2022-10-23T06:33:53.000Z,10.00
2022-10-23T06:36:54.672Z,10.00
2022-10-23T06:40:08.637Z,10.10
2022-10-23T06:43:48.361Z,10.10
2022-10-23T06:46:56.009Z,10.10
2022-10-23T06:50:16.548Z,10.10
2022-10-23T06:53:19.834Z,10.20
2022-10-23T06:56:29.137Z,10.10
2022-10-23T06:59:30.936Z,10.20
2022-10-23T07:02:32.792Z,10.30
2022-10-23T07:05:35.203Z,10.40
2022-10-23T07:08:37.957Z,10.40
2022-10-23T07:11:51.008Z,10.50
2022-10-23T07:14:54.373Z,10.50
2022-10-23T07:17:56.817Z,10.50
2022-10-23T07:21:00.089Z,10.60
2022-10-23T07:24:04.161Z,10.70
2022-10-23T07:27:08.447Z,10.80
2022-10-23T07:30:11.409Z,10.80
2022-10-23T07:33:19.685Z,10.90
2022-10-23T07:36:36.292Z,10.90
2022-10-23T07:39:37.987Z,10.90
2022-10-23T07:42:39.722Z,11.00
2022-10-23T07:45:42.595Z,11.00
2022-10-23T07:48:52.327Z,11.00
2022-10-23T07:51:54.199Z,11.00
2022-10-23T07:54:55.973Z,11.00
2022-10-23T07:57:58.857Z,11.10
2022-10-23T08:01:40.651Z,11.10
2022-10-23T08:04:46.679Z,11.20
2022-10-23T08:08:04.646Z,11.30
2022-10-23T08:11:07.011Z,11.40
2022-10-23T08:14:19.370Z,11.40
2022-10-23T08:17:24.049Z,11.30
2022-10-23T08:20:42.701Z,11.40
2022-10-23T08:23:45.067Z,11.40
2022-10-23T08:26:49.952Z,11.40
2022-10-23T08:29:53.857Z,11.50
2022-10-23T08:32:56.202Z,11.60
2022-10-23T08:35:58.087Z,11.60
2022-10-23T08:39:06.174Z,11.70
2022-10-23T08:42:20.455Z,11.80
2022-10-23T08:45:46.361Z,11.80
2022-10-23T08:49:25.264Z,12.00
2022-10-23T08:52:50.785Z,12.20
2022-10-23T08:56:12.173Z,12.30
2022-10-23T08:59:32.992Z,12.50
2022-10-23T09:02:43.393Z,12.50
2022-10-23T09:06:08.788Z,12.80
2022-10-23T09:09:34.873Z,12.70
2022-10-23T09:12:36.830Z,12.80
2022-10-23T09:15:50.901Z,13.00
2022-10-23T09:18:53.375Z,13.20
2022-10-23T09:21:56.181Z,13.30
2022-10-23T09:24:57.813Z,13.30
2022-10-23T09:28:05.056Z,13.40
2022-10-23T09:31:09.361Z,13.40
2022-10-23T09:34:19.985Z,13.50
2022-10-23T09:37:31.050Z,13.60
2022-10-23T09:40:41.925Z,13.80
2022-10-23T09:43:43.927Z,13.90
2022-10-23T09:49:57.234Z,14.00
2022-10-23T09:52:59.271Z,14.10
2022-10-23T09:56:24.631Z,14.20
2022-10-23T09:59:29.735Z,14.10
2022-10-23T10:02:37.101Z,14.20
2022-10-23T10:05:42.504Z,14.30
2022-10-23T10:08:54.347Z,14.50
2022-10-23T10:12:03.119Z,14.70
2022-10-23T10:15:18.677Z,15.00
2022-10-23T10:18:34.880Z,15.10
2022-10-23T10:22:25.809Z,15.30
2022-10-23T10:25:52.128Z,15.30
2022-10-23T10:29:10.628Z,15.50
2022-10-23T10:32:31.927Z,15.50
2022-10-23T10:35:55.571Z,15.50
2022-10-23T10:39:01.172Z,15.50
2022-10-23T10:42:55.966Z,15.60
2022-10-23T10:46:05.320Z,15.50
2022-10-23T10:49:28.772Z,15.50
2022-10-23T10:52:58.844Z,15.60
2022-10-23T10:56:04.410Z,15.60
2022-10-23T10:59:30.797Z,15.70
2022-10-23T11:02:47.649Z,15.70
2022-10-23T11:05:51.523Z,15.70
2022-10-23T11:09:03.979Z,15.70
2022-10-23T11:12:21.605Z,15.80
2022-10-23T11:15:36.314Z,15.80
2022-10-23T11:18:43.021Z,15.80
2022-10-23T11:21:52.944Z,15.80
2022-10-23T11:25:26.736Z,15.80
2022-10-23T11:28:46.285Z,15.90
2022-10-23T11:32:30.428Z,15.80
2022-10-23T11:36:09.506Z,15.80
2022-10-23T11:39:24.958Z,15.80
2022-10-23T11:42:41.770Z,15.80
2022-10-23T11:45:43.742Z,15.80
2022-10-23T11:48:47.102Z,15.90
2022-10-23T11:52:03.992Z,16.00
2022-10-23T11:55:27.588Z,16.00
2022-10-23T11:58:41.039Z,16.10
2022-10-23T12:01:45.354Z,16.10
2022-10-23T12:04:50.220Z,16.10
2022-10-23T12:07:57.645Z,16.20
2022-10-23T12:10:59.734Z,16.30
2022-10-23T12:14:01.464Z,16.40
2022-10-23T12:17:18.695Z,16.40
2022-10-23T12:20:52.061Z,16.50
2022-10-23T12:24:05.792Z,16.60
2022-10-23T12:27:45.463Z,16.60
2022-10-23T12:31:17.045Z,16.70
2022-10-23T12:34:26.031Z,16.80
2022-10-23T12:37:56.676Z,17.00
2022-10-23T12:41:16.207Z,17.30
2022-10-23T12:44:20.715Z,17.50
2022-10-23T12:47:22.389Z,17.70
2022-10-23T12:50:27.260Z,17.80
2022-10-23T12:53:28.961Z,18.00
2022-10-23T12:56:36.621Z,18.00
2022-10-23T12:59:39.236Z,18.00
2022-10-23T13:02:40.957Z,18.00
2022-10-23T13:05:43.395Z,18.10
2022-10-23T13:08:47.744Z,18.10
2022-10-23T13:12:14.805Z,18.30
2022-10-23T13:15:18.923Z,18.40
2022-10-23T13:18:20.656Z,18.30
2022-10-23T13:21:28.448Z,18.20
2022-10-23T13:24:31.188Z,18.30
2022-10-23T13:27:34.274Z,18.30
2022-10-23T13:30:39.595Z,18.20
2022-10-23T13:33:45.509Z,18.20
2022-10-23T13:36:53.630Z,18.10
2022-10-23T13:40:07.514Z,18.00
2022-10-23T13:43:16.194Z,18.00
2022-10-23T13:46:19.841Z,17.90
2022-10-23T13:49:21.521Z,18.00
2022-10-23T13:52:24.527Z,17.90
2022-10-23T13:55:26.995Z,18.00
2022-10-23T13:58:28.653Z,17.90
2022-10-23T14:01:33.443Z,17.90
2022-10-23T14:04:35.158Z,17.90
2022-10-23T14:07:36.818Z,17.80
2022-10-23T14:10:38.500Z,17.80
2022-10-23T14:13:40.330Z,17.80
2022-10-23T14:16:42.066Z,17.80
2022-10-23T14:19:43.802Z,17.80
2022-10-23T14:22:45.891Z,17.90
2022-10-23T14:25:47.753Z,17.80
2022-10-23T14:28:52.789Z,17.80
2022-10-23T14:31:54.458Z,17.80
2022-10-23T14:34:56.157Z,17.80
2022-10-23T14:37:58.466Z,17.70
2022-10-23T14:41:00.255Z,17.60
2022-10-23T14:44:01.865Z,17.60
2022-10-23T14:47:03.920Z,17.60
2022-10-23T14:50:06.140Z,17.50
2022-10-23T14:53:07.834Z,17.40
2022-10-23T14:56:09.685Z,17.50
2022-10-23T14:59:13.212Z,17.40
2022-10-23T15:02:15.791Z,17.40
2022-10-23T15:05:17.463Z,17.30
2022-10-23T15:08:19.395Z,17.30
2022-10-23T15:11:22.213Z,17.30
2022-10-23T15:14:23.946Z,17.20
2022-10-23T15:17:25.673Z,17.10
2022-10-23T15:20:27.408Z,17.10
2022-10-23T15:23:29.057Z,17.20
2022-10-23T15:26:30.981Z,17.10
2022-10-23T15:29:32.613Z,17.00
2022-10-23T15:32:34.261Z,17.00
2022-10-23T15:35:35.902Z,17.00
2022-10-23T15:38:37.574Z,16.90
2022-10-23T15:41:41.487Z,16.90
2022-10-23T15:44:43.157Z,17.00
2022-10-23T15:47:45.039Z,17.10
2022-10-23T15:50:46.827Z,17.10
2022-10-23T15:53:48.943Z,16.90
2022-10-23T15:56:52.565Z,16.80
2022-10-23T15:59:54.228Z,16.70
2022-10-23T16:02:55.912Z,16.60
2022-10-23T16:05:57.551Z,16.60
2022-10-23T16:08:59.574Z,16.60
2022-10-23T16:12:01.233Z,16.60
2022-10-23T16:15:03.007Z,16.70
2022-10-23T16:18:04.869Z,16.80
2022-10-23T16:21:07.601Z,16.80
2022-10-23T16:24:10.070Z,16.50
2022-10-23T16:27:11.880Z,16.40
2022-10-23T16:30:14.599Z,16.30
2022-10-23T16:33:16.243Z,16.30
2022-10-23T16:36:18.951Z,16.20
2022-10-23T16:39:49.237Z,16.20
2022-10-23T16:43:06.166Z,16.10
2022-10-23T16:46:17.555Z,16.10
2022-10-23T16:49:19.239Z,16.10
2022-10-23T16:52:20.925Z,16.10
2022-10-23T16:55:22.608Z,16.10
2022-10-23T16:58:25.990Z,16.00
2022-10-23T17:01:30.138Z,16.00
2022-10-23T17:04:31.851Z,16.00
2022-10-23T17:07:33.548Z,16.10
2022-10-23T17:10:35.179Z,16.00
2022-10-23T17:13:39.287Z,16.10
2022-10-23T17:16:50.319Z,16.20
2022-10-23T17:19:51.952Z,16.20
2022-10-23T17:22:53.602Z,16.10
2022-10-23T17:25:55.826Z,16.00
2022-10-23T17:28:59.092Z,16.00
2022-10-23T17:32:00.957Z,16.00
2022-10-23T17:35:05.573Z,15.90
2022-10-23T17:38:07.242Z,15.90
2022-10-23T17:41:10.203Z,15.80
2022-10-23T17:44:12.235Z,15.70
2022-10-23T17:47:13.984Z,15.70
2022-10-23T17:50:15.919Z,15.70
2022-10-23T17:53:17.580Z,15.70
2022-10-23T17:56:25.060Z,15.60
2022-10-23T17:59:26.749Z,15.60
2022-10-23T18:02:28.473Z,15.50
2022-10-23T18:05:33.081Z,15.50
2022-10-23T18:08:36.358Z,15.50
2022-10-23T18:11:45.347Z,15.40
2022-10-23T18:14:48.647Z,15.40
2022-10-23T18:17:50.301Z,15.40
2022-10-23T18:20:51.939Z,15.30
2022-10-23T18:23:53.895Z,15.40
2022-10-23T18:26:55.563Z,15.40
2022-10-23T18:29:57.268Z,15.30
2022-10-23T18:32:58.919Z,15.40
2022-10-23T18:36:00.619Z,15.30
2022-10-23T18:39:03.484Z,15.30
2022-10-23T18:42:05.535Z,15.20
2022-10-23T18:45:07.806Z,15.20
2022-10-23T18:48:09.497Z,15.20
2022-10-23T18:51:16.938Z,15.20
2022-10-23T18:54:20.521Z,15.20
2022-10-23T18:57:22.172Z,15.10
2022-10-23T19:00:23.983Z,15.10
2022-10-23T19:03:25.641Z,15.20
2022-10-23T19:06:29.120Z,15.10
2022-10-23T19:09:30.766Z,15.10
2022-10-23T19:12:32.562Z,15.10
2022-10-23T19:15:36.613Z,15.10
2022-10-23T19:18:42.350Z,15.10
2022-10-23T19:21:44.851Z,15.10
2022-10-23T19:24:54.018Z,15.10
2022-10-23T19:27:57.594Z,15.00
2022-10-23T19:31:00.144Z,15.00
2022-10-23T19:34:01.827Z,14.90
2022-10-23T19:37:03.721Z,14.90
2022-10-23T19:40:07.457Z,15.00
2022-10-23T19:43:09.099Z,14.90
2022-10-23T19:46:12.395Z,14.90
2022-10-23T19:49:14.422Z,14.90
2022-10-23T19:52:16.073Z,14.80
2022-10-23T19:55:17.839Z,14.80
2022-10-23T19:58:19.565Z,14.70
2022-10-23T20:01:25.186Z,14.70
2022-10-23T20:04:28.739Z,14.70
2022-10-23T20:07:30.460Z,14.60
2022-10-23T20:10:32.317Z,15.50
2022-10-23T20:13:34.200Z,14.60
2022-10-23T20:16:38.053Z,15.40
2022-10-23T20:19:39.910Z,14.50
2022-10-23T20:22:43.114Z,15.30
2022-10-23T20:25:45.888Z,14.40
2022-10-23T20:28:48.476Z,14.30
2022-10-23T20:31:50.869Z,14.40
2022-10-23T20:34:52.786Z,14.30
2022-10-23T20:37:54.500Z,14.30
2022-10-23T20:41:03.979Z,15.60
2022-10-23T20:44:07.350Z,14.20
2022-10-23T20:47:09.102Z,14.40
2022-10-23T20:50:10.926Z,14.90
2022-10-23T20:53:12.689Z,14.40
2022-10-23T20:56:32.338Z,15.50
2022-10-23T20:59:34.140Z,14.50
2022-10-23T21:02:36.104Z,14.60
2022-10-23T21:05:38.136Z,16.00
2022-10-23T21:08:40.832Z,14.80
2022-10-23T21:11:42.579Z,15.50
2022-10-23T21:14:44.383Z,15.80
2022-10-23T21:17:48.949Z,14.90
2022-10-23T21:20:54.943Z,15.50
2022-10-23T21:23:59.456Z,14.90
2022-10-23T21:27:01.254Z,15.10
2022-10-23T21:30:03.207Z,15.30
2022-10-23T21:33:05.770Z,15.00
2022-10-23T21:36:15.387Z,15.40
2022-10-23T21:39:17.322Z,15.00
2022-10-23T21:42:19.295Z,16.50
2022-10-23T21:45:21.347Z,16.40
2022-10-23T21:48:23.166Z,15.90
2022-10-23T21:51:35.619Z,15.50
2022-10-23T21:54:37.419Z,14.80
2022-10-23T21:57:39.182Z,16.40
2022-10-23T22:00:40.891Z,16.30
2022-10-23T22:03:42.527Z,14.50
2022-10-23T22:06:45.245Z,14.50
2022-10-23T22:09:46.877Z,14.40
2022-10-23T22:12:48.718Z,14.40
2022-10-23T22:15:50.370Z,14.30
2022-10-23T22:18:52.388Z,14.20
2022-10-23T22:21:54.899Z,14.30
2022-10-23T22:24:56.637Z,14.30
2022-10-23T22:27:59.073Z,14.30
2022-10-23T22:31:01.874Z,14.10
2022-10-23T22:34:18.487Z,14.20
2022-10-23T22:37:27.330Z,14.20
2022-10-23T22:40:29.001Z,13.70
2022-10-23T22:43:31.181Z,13.60
2022-10-23T22:46:33.095Z,13.50
2022-10-23T22:49:34.787Z,13.50
2022-10-23T22:52:36.409Z,13.40
2022-10-23T22:55:42.440Z,13.40
2022-10-23T22:58:44.738Z,13.30
2022-10-23T23:01:47.555Z,13.30
2022-10-23T23:04:49.265Z,13.50
2022-10-23T23:07:50.944Z,13.70
2022-10-23T23:10:53.908Z,13.80
2022-10-23T23:13:55.593Z,13.80
2022-10-23T23:16:57.283Z,13.80
2022-10-23T23:19:59.201Z,13.80
2022-10-23T23:23:00.901Z,13.70
2022-10-23T23:26:05.529Z,13.80
2022-10-23T23:29:07.358Z,13.90
2022-10-23T23:32:10.427Z,13.70
2022-10-23T23:35:12.136Z,13.80
2022-10-23T23:38:13.972Z,13.70
2022-10-23T23:41:17.750Z,13.50
2022-10-23T23:44:19.415Z,13.30
2022-10-23T23:47:21.106Z,13.30
2022-10-23T23:50:22.916Z,13.20
2022-10-23T23:53:24.732Z,13.10
2022-10-23T23:56:26.517Z,13.10
2022-10-23T23:59:28.187Z,13.10
